Main page
METAR-TAF:

METAR-TAF

Airports :

Carrasco International Airport

Montevideo, Uruguay

latitude: 34-50S, longitude: 056-00W, elevation: 32 m

Current weather observation

The report was made 35 minutes ago, at 03:00 UTC
Calm wind
Temperature 13°C
Humidity 100%
Pressure 1017 hPa
Visibility: 8000 m

METAR: SUMU 260300Z 00000KT 8000 NSC 13/13 Q1017 TEMPO BR

Time: 00:35 (03:35 UTC)

Forecast

The report was made 4 hours and 0 minutes ago, at 23:35 UTC
Forecast valid from 26 at 00 UTC to 26 at 24 UTC
Wind 5 kt from the East
Visibility 10 km or more
no clouds below 1500 m and no cumulonimbus
Temporary
from 26 at 01 UTC to 26 at 11 UTC
Wind 5 kt from the North
Visibility: 3000 m
mist
Temporary
from 26 at 04 UTC to 26 at 10 UTC
Visibility: 0800 m
Broken clouds at a height of 300 ft
patches of fog

TAF: SUMU 252335Z 2600/2624 09005KT CAVOK TX22/2618Z TN10/2610Z TEMPO 2601/2611 01005KT 3000 BR NSC TEMPO 2604/2610 0800 BCFG BKN003

Weather observations and forecasts of more than 4000 airports (METAR and TAF reports).

The available stations are represented by yellow and red dots on the map.

Hover mouse over dot to see the name of the station.

Then click to see weather observations and forecasts.

To change the map : click on the green buttons with a black cross to zoom in, on the green button with a dash to zoom out, or on the green arrows for adjacent maps.


METAR-TAF: